Time,TemperatureF,DewpointF,PressureIn,WindDirection,WindDirectionDegrees,WindSpeedMPH,WindSpeedGustMPH,Humidity,HourlyPrecipIn,Conditions,Clouds,dailyrainin,SolarRadiationWatts/m^2,SoftwareType,DateUTC
2013-07-24 00:00:00,73.3,64.9,29.46,SSW,202,0.0,1.0,75,0.01,,---,0.00,0.00,VWS V14.00,2013-07-24 04:00:00,
2013-07-24 00:30:00,72.6,66.1,29.46,SSW,202,0.0,1.0,80,0.00,,---,0.00,0.00,VWS V14.00,2013-07-24 04:30:00,
2013-07-24 01:00:00,71.7,65.6,29.45,SSW,202,0.0,0.0,81,0.00,,---,0.00,0.00,VWS V14.00,2013-07-24 05:00:00,
2013-07-24 01:30:00,70.9,65.8,29.44,SSW,202,0.0,0.0,84,0.00,,---,0.00,0.00,VWS V14.00,2013-07-24 05:30:00,
2013-07-24 02:00:00,69.8,65.4,29.43,SSW,202,0.0,0.0,86,0.00,,---,0.00,0.00,VWS V14.00,2013-07-24 06:00:00,
2013-07-24 02:30:00,70.1,65.4,29.42,SSW,202,0.0,2.0,85,0.00,,---,0.00,0.00,VWS V14.00,2013-07-24 06:30:00,
2013-07-24 03:00:00,70.4,65.3,29.42,SSW,202,0.0,1.0,84,0.00,,---,0.00,0.00,VWS V14.00,2013-07-24 07:00:00,
2013-07-24 03:30:00,69.8,65.1,29.41,SSW,202,0.0,1.0,85,0.00,,---,0.00,0.00,VWS V14.00,2013-07-24 07:30:00,
2013-07-24 04:00:00,69.3,64.9,29.41,SSW,202,0.0,1.0,86,0.00,,---,0.00,0.00,VWS V14.00,2013-07-24 08:00:00,
2013-07-24 04:30:00,68.9,64.9,29.41,SSW,202,0.0,1.0,87,0.01,,---,0.01,0.00,VWS V14.00,2013-07-24 08:30:00,
2013-07-24 05:00:00,68.3,64.6,29.42,SSW,202,0.0,0.0,88,0.01,,---,0.01,0.00,VWS V14.00,2013-07-24 09:00:00,
2013-07-24 05:30:00,68.1,64.7,29.42,SSW,202,0.0,0.0,89,0.01,,---,0.01,0.00,VWS V14.00,2013-07-24 09:30:00,
2013-07-24 06:00:00,67.8,64.4,29.44,SSW,202,0.0,1.0,89,0.00,,---,0.01,0.00,VWS V14.00,2013-07-24 10:00:00,
2013-07-24 06:30:00,68.0,64.6,29.44,West,270,0.0,1.0,89,0.00,,---,0.01,0.00,VWS V14.00,2013-07-24 10:30:00,
2013-07-24 07:00:00,68.5,64.2,29.44,WNW,292,0.0,1.0,86,0.00,,---,0.01,10.00,VWS V14.00,2013-07-24 11:00:00,
2013-07-24 07:30:00,69.4,65.7,29.45,NW,315,0.0,1.0,88,0.00,,---,0.01,16.00,VWS V14.00,2013-07-24 11:30:00,
2013-07-24 08:00:00,69.6,66.2,29.45,NW,315,0.0,0.0,89,0.00,,---,0.01,24.00,VWS V14.00,2013-07-24 12:00:00,
2013-07-24 08:30:00,70.5,67.1,29.48,NW,315,0.0,0.0,89,0.00,,---,0.01,32.00,VWS V14.00,2013-07-24 12:30:00,
2013-07-24 09:00:00,72.8,67.3,29.49,WNW,292,0.0,1.0,83,0.00,,---,0.01,57.00,VWS V14.00,2013-07-24 13:00:00,
2013-07-24 09:30:00,73.7,67.2,29.49,SE,135,0.0,1.0,80,0.00,,---,0.01,44.00,VWS V14.00,2013-07-24 13:30:00,
2013-07-24 10:00:00,73.9,68.1,29.50,SE,135,0.0,1.0,82,0.00,,---,0.01,36.00,VWS V14.00,2013-07-24 14:00:00,
2013-07-24 10:30:00,73.8,68.7,29.51,SE,135,0.0,0.0,84,0.01,,---,0.02,50.00,VWS V14.00,2013-07-24 14:30:00,
2013-07-24 11:00:00,74.4,68.6,29.51,ESE,112,0.0,1.0,82,0.01,,---,0.02,75.00,VWS V14.00,2013-07-24 15:00:00,
2013-07-24 11:30:00,74.7,68.5,29.51,North,0,0.0,1.0,81,0.01,,---,0.02,74.00,VWS V14.00,2013-07-24 15:30:00,
2013-07-24 12:00:00,75.1,67.8,29.52,SSE,158,0.0,3.0,78,0.00,,---,0.02,83.00,VWS V14.00,2013-07-24 16:00:00,
2013-07-24 12:30:00,75.5,68.5,29.52,SE,135,0.0,3.0,79,0.00,,---,0.02,83.00,VWS V14.00,2013-07-24 16:30:00,
2013-07-24 13:00:00,75.6,67.9,29.52,NNE,22,0.0,2.0,77,0.00,,---,0.02,81.00,VWS V14.00,2013-07-24 17:00:00,
2013-07-24 13:30:00,76.1,67.6,29.51,SSE,158,0.0,2.0,75,0.00,,---,0.02,92.00,VWS V14.00,2013-07-24 17:30:00,
2013-07-24 14:00:00,76.1,68.4,29.50,North,0,0.0,1.0,77,0.00,,---,0.02,77.00,VWS V14.00,2013-07-24 18:00:00,
2013-07-24 14:30:00,77.8,68.1,29.50,East,90,0.0,4.0,72,0.00,,---,0.02,111.00,VWS V14.00,2013-07-24 18:30:00,
2013-07-24 15:00:00,77.1,68.6,29.50,NE,45,0.0,2.0,75,0.00,,---,0.02,75.00,VWS V14.00,2013-07-24 19:00:00,
2013-07-24 15:30:00,77.6,68.3,29.50,SE,135,0.0,2.0,73,0.01,,---,0.03,250.00,VWS V14.00,2013-07-24 19:30:00,
2013-07-24 16:00:00,77.8,67.7,29.50,NE,45,0.0,2.0,71,0.01,,---,0.03,85.00,VWS V14.00,2013-07-24 20:00:00,
2013-07-24 16:30:00,77.5,67.8,29.50,NNE,22,0.0,3.0,72,0.01,,---,0.03,77.00,VWS V14.00,2013-07-24 20:30:00,
2013-07-24 17:00:00,76.9,68.0,29.50,NNW,338,0.0,4.0,74,0.00,,---,0.03,64.00,VWS V14.00,2013-07-24 21:00:00,
2013-07-24 17:30:00,76.5,67.6,29.50,North,0,0.0,2.0,74,0.00,,---,0.03,51.00,VWS V14.00,2013-07-24 21:30:00,
2013-07-24 18:00:00,76.2,66.1,29.51,NE,45,0.0,3.0,71,0.00,,---,0.03,56.00,VWS V14.00,2013-07-24 22:00:00,
2013-07-24 18:30:00,75.4,66.2,29.51,NE,45,0.0,2.0,73,0.00,,---,0.03,35.00,VWS V14.00,2013-07-24 22:30:00,
2013-07-24 19:00:00,74.6,65.4,29.52,South,180,0.0,2.0,73,0.00,,---,0.03,13.00,VWS V14.00,2013-07-24 23:00:00,
2013-07-24 19:30:00,73.8,64.6,29.54,NW,315,0.0,2.0,73,0.00,,---,0.03,8.00,VWS V14.00,2013-07-24 23:30:00,
2013-07-24 20:00:00,73.2,61.6,29.55,NW,315,0.0,3.0,67,0.00,,---,0.03,4.00,VWS V14.00,2013-07-25 00:00:00,
2013-07-24 20:30:00,72.5,60.9,29.56,WNW,292,0.0,4.0,67,0.00,,---,0.03,0.00,VWS V14.00,2013-07-25 00:30:00,
2013-07-24 21:00:00,71.5,60.0,29.58,SSW,202,0.0,6.0,67,0.01,,---,0.04,0.00,VWS V14.00,2013-07-25 01:00:00,
2013-07-24 21:30:00,70.8,58.9,29.60,NNE,22,0.0,2.0,66,0.01,,---,0.04,0.00,VWS V14.00,2013-07-25 01:30:00,
2013-07-24 22:00:00,70.4,58.9,29.60,NNE,22,0.0,3.0,67,0.01,,---,0.04,0.00,VWS V14.00,2013-07-25 02:00:00,
2013-07-24 22:30:00,70.1,57.8,29.62,North,0,0.0,2.0,65,0.00,,---,0.04,0.00,VWS V14.00,2013-07-25 02:30:00,
2013-07-24 23:00:00,69.8,57.5,29.62,ENE,68,0.0,1.0,65,0.00,,---,0.04,0.00,VWS V14.00,2013-07-25 03:00:00,
2013-07-24 23:30:00,69.5,57.2,29.62,South,180,0.0,1.0,65,0.00,,---,0.04,0.00,VWS V14.00,2013-07-25 03:30:00,